Norwegian Epic — C6XP7 — position and weather

sailwx.info

Track history (hours):
 
Tides and Currents Weather Stations Pressure Air Temp Water Temp Dewpoint Dewpoint Depression Visibility Wind Speed Wind Dir Waves Ship Positions

Norwegian Epic

Last reported at 2017-May-25 03:00 UTC. Time now 2017-May-25 03:02 UTC.
Position N 43°21' E 010°10'.

Length 329 m; draft 9 m.

Type: Passenger vessel. MMSI: 311018500.

Date/timePositionNaut miles runAvg speedWind from/ knotsBaromVisibWave heightAir tempDewpointWater temp
2017-May-25 03:00N 43°21' E 010°10'612.7
2017-May-25 02:30N 43°14' E 010°08'612.8
2017-May-25 02:00N 43°08' E 010°05'612.9
2017-May-25 01:30N 43°02' E 010°03'712.8
2017-May-25 01:00N 42°56' E 010°01'612.8
2017-May-25 00:30N 42°50' E 009°59'815.1
2017-May-25 00:00N 42°42' E 009°56'917.7
2017-May-24 23:30N 42°34' E 009°53'916.9
2017-May-24 22:59N 42°25' E 009°54'817.6
2017-May-24 22:30N 42°17' E 009°58'917.3
2017-May-24 22:00N 42°13' E 010°09'917.5
2017-May-24 21:30N 42°10' E 010°20'917.4
2017-May-24 21:00N 42°07' E 010°31'917.3
2017-May-24 20:30N 42°04' E 010°42'917.4
2017-May-24 20:00N 42°01' E 010°53'917.6
2017-May-24 19:30N 41°58' E 011°04'1016.9
2017-May-24 18:57N 41°59' E 011°16'817.0
2017-May-24 18:27N 42°01' E 011°27'816.8
2017-May-24 18:00N 42°05' E 011°36'712.8
2017-May-24 17:29N 42°07' E 011°45'136 4.5
2017-May-23 10:59N 40°50' E 014°16'0 0.0
2017-May-23 10:29N 40°50' E 014°16'8 1.1
2017-May-23 03:22N 40°43' E 014°11'511.9
2017-May-23 02:59N 40°40' E 014°06'611.9
2017-May-23 02:30N 40°36' E 014°00'612.3
2017-May-23 02:01N 40°33' E 013°54'612.7
2017-May-23 01:30N 40°28' E 013°48'611.4
2017-May-23 00:59N 40°28' E 013°40'612.9
2017-May-23 00:29N 40°30' E 013°32'713.2
2017-May-22 23:59N 40°32' E 013°23'913.4
2017-May-22 23:20N 40°34' E 013°12'613.3
2017-May-22 22:52N 40°35' E 013°05'613.2
2017-May-22 22:26N 40°37' E 012°57'912.9
2017-May-22 21:45N 40°39' E 012°46'313.0
2017-May-22 21:30N 40°40' E 012°42'713.1
2017-May-22 20:57N 40°42' E 012°33'913.1
2017-May-22 20:17N 40°45' E 012°22'413.1
2017-May-22 20:00N 40°46' E 012°17'612.9
2017-May-22 19:30N 40°47' E 012°09'712.9
2017-May-22 18:59N 40°49' E 012°00'713.2
2017-May-22 18:26N 40°51' E 011°51'713.3
2017-May-22 17:56N 40°53' E 011°43'613.5
2017-May-22 17:28N 40°55' E 011°35'613.4
2017-May-22 17:00N 40°57' E 011°27'815.5
2017-May-22 16:29N 40°59' E 011°16'917.4
2017-May-22 15:59N 41°01' E 011°05'817.2
2017-May-22 15:29N 41°04' E 010°55'917.6
2017-May-22 14:59N 41°06' E 010°43'1717.3
2017-May-22 13:59N 41°11' E 010°21'917.8
2017-May-22 13:30N 41°13' E 010°10'918.0
2017-May-22 13:00N 41°15' E 009°58'1018.2
2017-May-22 12:28N 41°18' E 009°46'817.9
2017-May-22 12:00N 41°20' E 009°35'917.3
2017-May-22 11:30N 41°22' E 009°24'816.4
2017-May-22 11:00N 41°17' E 009°15'816.7
2017-May-22 10:30N 41°17' E 009°04'816.5
2017-May-22 10:00N 41°17' E 008°53'816.2
2017-May-22 09:29N 41°17' E 008°42'816.1
2017-May-22 09:00N 41°17' E 008°32'816.3
2017-May-22 08:30N 41°17' E 008°21'816.5
2017-May-22 08:00N 41°17' E 008°10'816.5
2017-May-22 07:30N 41°17' E 007°59'815.2
2017-May-22 07:00N 41°17' E 007°49'815.3
2017-May-22 06:30N 41°17' E 007°39'917.5
2017-May-22 06:01N 41°17' E 007°27'918.0
2017-May-22 05:30N 41°17' E 007°15'918.1
2017-May-22 04:59N 41°17' E 007°03'918.3
2017-May-22 04:30N 41°17' E 006°51'918.2
2017-May-22 03:59N 41°17' E 006°38'918.3
2017-May-22 03:30N 41°17' E 006°27'918.2
2017-May-22 03:00N 41°16' E 006°14'918.2
2017-May-22 02:30N 41°16' E 006°02'918.1
2017-May-22 02:00N 41°16' E 005°50'918.3
2017-May-22 01:29N 41°16' E 005°38'1018.0
2017-May-22 00:55N 41°16' E 005°24'818.0
2017-May-22 00:27N 41°16' E 005°13'917.8
2017-May-21 23:57N 41°16' E 005°01'2617.6
2017-May-21 22:27N 41°16' E 004°26'817.6
2017-May-21 21:58N 41°16' E 004°15'817.6
2017-May-21 21:30N 41°16' E 004°03'1118.0
2017-May-21 20:53N 41°16' E 003°49'718.0
2017-May-21 20:30N 41°16' E 003°40'917.7
2017-May-21 19:59N 41°16' E 003°28'917.7
2017-May-21 19:30N 41°16' E 003°16'917.5
2017-May-21 19:00N 41°16' E 003°05'917.4
2017-May-21 18:30N 41°16' E 002°53'917.4
2017-May-21 18:00N 41°16' E 002°41'917.6
2017-May-21 17:30N 41°16' E 002°30'917.9
2017-May-21 17:00N 41°16' E 002°18'713.5
2017-May-21 16:30N 41°19' E 002°10'3 1.9
2017-May-21 15:03N 41°22' E 002°11'0 0.0
2017-May-21 14:51N 41°22' E 002°11'0 0.0
2017-May-21 14:27N 41°22' E 002°11'0 0.0
2017-May-21 13:16N 41°22' E 002°11'0 0.0
2017-May-21 12:58N 41°22' E 002°11'0 0.0
2017-May-21 12:17N 41°22' E 002°11'0 0.0
2017-May-21 09:55N 41°22' E 002°11'0 0.0
2017-May-21 03:58N 41°22' E 002°11'0 0.0
2017-May-21 03:29N 41°22' E 002°11'0 0.0
2017-May-21 03:00N 41°22' E 002°11'1 1.2
2017-May-21 02:30N 41°21' E 002°10'4 7.7
2017-May-21 02:00N 41°17' E 002°11'612.6
2017-May-21 01:30N 41°11' E 002°11'713.6
2017-May-21 01:00N 41°04' E 002°11'815.5
2017-May-21 00:30N 40°57' E 002°12'917.8
2017-May-21 00:00N 40°48' E 002°12'917.9
2017-May-20 23:30N 40°39' E 002°12'918.0
2017-May-20 23:00N 40°30' E 002°12'918.1
2017-May-20 22:31N 40°21' E 002°12'918.0
2017-May-20 22:01N 40°12' E 002°12'918.1
2017-May-20 21:30N 40°03' E 002°12'918.1
2017-May-20 21:00N 39°54' E 002°12'918.1
2017-May-20 20:30N 39°45' E 002°13'918.3
2017-May-20 20:00N 39°35' E 002°13'917.4
2017-May-20 19:30N 39°29' E 002°20'917.6
2017-May-20 19:00N 39°24' E 002°30'816.4
2017-May-20 18:30N 39°30' E 002°37'3 5.6
2017-May-20 18:00N 39°33' E 002°38'0 0.0
2017-May-20 17:29N 39°33' E 002°38'0 0.0
2017-May-20 16:59N 39°33' E 002°38'0 0.0
2017-May-20 16:29N 39°33' E 002°38'0 0.0
2017-May-20 16:00N 39°33' E 002°38'0 0.0
2017-May-20 15:30N 39°33' E 002°38'0 0.0
2017-May-20 15:00N 39°33' E 002°38'0 0.0
2017-May-20 14:28N 39°33' E 002°38'0 0.0
2017-May-20 13:28N 39°33' E 002°38'0 0.0
2017-May-20 12:59N 39°33' E 002°38'0 0.0
2017-May-20 12:29N 39°33' E 002°38'0 0.0
2017-May-20 11:59N 39°33' E 002°38'0 0.0
2017-May-20 11:30N 39°33' E 002°38'0 0.0
2017-May-20 11:00N 39°33' E 002°38'0 0.1
2017-May-20 10:30N 39°33' E 002°38'1 2.4
2017-May-20 10:00N 39°32' E 002°39'613.0
2017-May-20 09:30N 39°27' E 002°34'916.9
2017-May-20 09:00N 39°28' E 002°23'917.3
2017-May-20 08:30N 39°35' E 002°17'1019.8
2017-May-20 08:01N 39°43' E 002°24'1020.1
2017-May-20 07:30N 39°51' E 002°32'1020.1
2017-May-20 07:00N 39°58' E 002°41'1020.2
2017-May-20 06:30N 40°06' E 002°50'1020.5
2017-May-20 06:00N 40°13' E 002°60'1020.2
2017-May-20 05:30N 40°20' E 003°09'1020.1
2017-May-20 05:00N 40°27' E 003°18'20921.2
2017-May-19 19:06N 42°57' E 006°35'320.6
2017-May-19 18:59N 42°58' E 006°37'1020.5
2017-May-19 18:30N 43°05' E 006°46'1020.3
2017-May-19 18:00N 43°14' E 006°54'1021.0
2017-May-19 17:30N 43°24' E 006°58'713.9
2017-May-19 17:00N 43°31' E 007°01'1 2.3
2017-May-19 16:29N 43°32' E 007°01'0 0.0
2017-May-19 16:01N 43°32' E 007°01'0 0.1
2017-May-19 15:30N 43°32' E 007°01'0 0.0
2017-May-19 15:00N 43°32' E 007°01'0 0.1
2017-May-19 13:58N 43°32' E 007°00'0 0.2
2017-May-19 13:24N 43°32' E 007°01'0 0.1
2017-May-19 12:51N 43°32' E 007°01'0 0.3
2017-May-19 12:26N 43°32' E 007°01'0 0.0
2017-May-19 11:56N 43°32' E 007°01'0 0.1
2017-May-19 11:28N 43°32' E 007°01'0 0.0
2017-May-19 11:00N 43°32' E 007°01'0 0.1
2017-May-19 10:30N 43°32' E 007°01'0 0.1
2017-May-19 10:00N 43°32' E 007°01'0 0.1
2017-May-19 09:30N 43°32' E 007°01'0 0.1
2017-May-19 08:55N 43°32' E 007°01'0 0.3
2017-May-19 08:28N 43°32' E 007°01'0 0.3
2017-May-19 07:57N 43°32' E 007°01'0 0.3
2017-May-19 07:29N 43°32' E 007°01'0 0.1
2017-May-19 07:00N 43°32' E 007°01'0 0.1
2017-May-19 06:30N 43°32' E 007°01'0 0.3
2017-May-19 06:00N 43°32' E 007°01'0 0.1
2017-May-19 05:29N 43°32' E 007°01'0 0.3
2017-May-19 05:00N 43°32' E 007°01'2 3.4
2017-May-19 04:30N 43°30' E 007°01'5 9.4
2017-May-19 04:01N 43°28' E 007°06'611.3
2017-May-19 03:30N 43°28' E 007°14'611.9
2017-May-19 03:00N 43°28' E 007°22'612.4
2017-May-19 02:30N 43°29' E 007°31'612.3
2017-May-19 02:00N 43°29' E 007°39'612.9
2017-May-19 01:30N 43°29' E 007°48'613.0
2017-May-19 01:00N 43°29' E 007°57'612.9
2017-May-19 00:31N 43°29' E 008°06'713.0
2017-May-19 00:00N 43°29' E 008°15'713.1
2017-May-18 23:30N 43°28' E 008°24'713.2
2017-May-18 23:00N 43°27' E 008°33'815.1
2017-May-18 22:30N 43°29' E 008°43'816.6
2017-May-18 22:00N 43°30' E 008°54'817.0
2017-May-18 21:30N 43°30' E 009°06'816.7
2017-May-18 21:00N 43°31' E 009°17'713.1
2017-May-18 20:31N 43°31' E 009°26'612.8
2017-May-18 20:00N 43°31' E 009°35'612.8
2017-May-18 19:31N 43°31' E 009°44'612.7
2017-May-18 19:01N 43°31' E 009°53'612.4
2017-May-18 18:30N 43°31' E 010°01'612.2
2017-May-18 17:59N 43°31' E 010°10'511.2
2017-May-18 17:31N 43°32' E 010°17'1 1.4
2017-May-18 16:54N 43°33' E 010°18'0 0.0
2017-May-18 16:30N 43°33' E 010°18'0 0.0
2017-May-18 15:55N 43°33' E 010°18'0 0.0
2017-May-18 15:28N 43°33' E 010°18'0 0.0
2017-May-18 14:55N 43°33' E 010°18'0 0.0
2017-May-18 13:56N 43°33' E 010°18'0 0.0
2017-May-18 13:29N 43°33' E 010°18'0 0.0
2017-May-18 13:00N 43°33' E 010°18'0 0.0
2017-May-18 12:30N 43°33' E 010°18'0 0.0
2017-May-18 12:00N 43°33' E 010°18'0 0.0
2017-May-18 11:28N 43°33' E 010°18'0 0.0
2017-May-18 10:58N 43°33' E 010°18'0 0.0
2017-May-18 10:28N 43°33' E 010°18'0 0.0
2017-May-18 09:56N 43°33' E 010°18'0 0.0
2017-May-18 09:26N 43°33' E 010°18'0 0.0
2017-May-18 08:59N 43°33' E 010°18'0 0.0
2017-May-18 08:24N 43°33' E 010°18'0 0.0
2017-May-18 08:00N 43°33' E 010°18'0 0.0
2017-May-18 07:30N 43°33' E 010°18'0 0.0
2017-May-18 06:58N 43°33' E 010°18'0 0.0
2017-May-18 06:28N 43°33' E 010°18'0 0.0
2017-May-18 05:58N 43°33' E 010°18'0 0.0
2017-May-18 05:29N 43°33' E 010°18'0 0.0
2017-May-18 05:01N 43°33' E 010°18'0 0.1
2017-May-18 04:31N 43°33' E 010°18'2 3.2
2017-May-18 04:01N 43°32' E 010°16'713.9
2017-May-18 03:30N 43°26' E 010°11'612.1
2017-May-18 03:00N 43°20' E 010°10'713.1
2017-May-18 02:30N 43°14' E 010°07'713.1
2017-May-18 02:00N 43°07' E 010°05'713.2
2017-May-18 01:29N 43°00' E 010°04'613.1
2017-May-18 01:00N 42°54' E 010°02'713.1
2017-May-18 00:30N 42°48' E 009°59'713.1
2017-May-18 00:01N 42°42' E 009°56'713.6
2017-May-17 23:30N 42°35' E 009°53'917.6
2017-May-17 23:00N 42°27' E 009°55'917.7
2017-May-17 22:30N 42°18' E 009°56'917.1
2017-May-17 22:00N 42°14' E 010°06'917.6
2017-May-17 21:30N 42°11' E 010°17'917.4
2017-May-17 20:59N 42°07' E 010°29'817.2
2017-May-17 20:29N 42°04' E 010°40'917.3
2017-May-17 19:59N 42°01' E 010°51'817.2
2017-May-17 19:30N 41°58' E 011°01'916.6
2017-May-17 18:58N 41°59' E 011°13'148 3.6
2017-May-16 01:49N 40°31' E 013°52'  
Track history (hours):
 
Tides and Currents Weather Stations Pressure Air Temp Water Temp Dewpoint Dewpoint Depression Visibility Wind Speed Wind Dir Waves Ship Positions

Norwegian Epic

Last reported at 2017-May-25 03:00 UTC. Time now 2017-May-25 03:02 UTC.
Position N 43°21' E 010°10'.

Length 329 m; draft 9 m.

Type: Passenger vessel. MMSI: 311018500.

Date/timePositionNaut miles runAvg speedWind from/ knotsBaromVisibWave heightAir tempDewpointWater temp
2017-May-25 03:00N 43°21' E 010°10'612.7
2017-May-25 02:30N 43°14' E 010°08'612.8
2017-May-25 02:00N 43°08' E 010°05'612.9
2017-May-25 01:30N 43°02' E 010°03'712.8
2017-May-25 01:00N 42°56' E 010°01'612.8
2017-May-25 00:30N 42°50' E 009°59'815.1
2017-May-25 00:00N 42°42' E 009°56'917.7
2017-May-24 23:30N 42°34' E 009°53'916.9
2017-May-24 22:59N 42°25' E 009°54'817.6
2017-May-24 22:30N 42°17' E 009°58'917.3
2017-May-24 22:00N 42°13' E 010°09'917.5
2017-May-24 21:30N 42°10' E 010°20'917.4
2017-May-24 21:00N 42°07' E 010°31'917.3
2017-May-24 20:30N 42°04' E 010°42'917.4
2017-May-24 20:00N 42°01' E 010°53'917.6
2017-May-24 19:30N 41°58' E 011°04'1016.9
2017-May-24 18:57N 41°59' E 011°16'817.0
2017-May-24 18:27N 42°01' E 011°27'816.8
2017-May-24 18:00N 42°05' E 011°36'712.8
2017-May-24 17:29N 42°07' E 011°45'136 4.5
2017-May-23 10:59N 40°50' E 014°16'0 0.0
2017-May-23 10:29N 40°50' E 014°16'8 1.1
2017-May-23 03:22N 40°43' E 014°11'511.9
2017-May-23 02:59N 40°40' E 014°06'611.9
2017-May-23 02:30N 40°36' E 014°00'612.3
2017-May-23 02:01N 40°33' E 013°54'612.7
2017-May-23 01:30N 40°28' E 013°48'611.4
2017-May-23 00:59N 40°28' E 013°40'612.9
2017-May-23 00:29N 40°30' E 013°32'713.2
2017-May-22 23:59N 40°32' E 013°23'913.4
2017-May-22 23:20N 40°34' E 013°12'613.3
2017-May-22 22:52N 40°35' E 013°05'613.2
2017-May-22 22:26N 40°37' E 012°57'912.9
2017-May-22 21:45N 40°39' E 012°46'313.0
2017-May-22 21:30N 40°40' E 012°42'713.1
2017-May-22 20:57N 40°42' E 012°33'913.1
2017-May-22 20:17N 40°45' E 012°22'413.1
2017-May-22 20:00N 40°46' E 012°17'612.9
2017-May-22 19:30N 40°47' E 012°09'712.9
2017-May-22 18:59N 40°49' E 012°00'713.2
2017-May-22 18:26N 40°51' E 011°51'713.3
2017-May-22 17:56N 40°53' E 011°43'613.5
2017-May-22 17:28N 40°55' E 011°35'613.4
2017-May-22 17:00N 40°57' E 011°27'815.5
2017-May-22 16:29N 40°59' E 011°16'917.4
2017-May-22 15:59N 41°01' E 011°05'817.2
2017-May-22 15:29N 41°04' E 010°55'917.6
2017-May-22 14:59N 41°06' E 010°43'1717.3
2017-May-22 13:59N 41°11' E 010°21'917.8
2017-May-22 13:30N 41°13' E 010°10'918.0
2017-May-22 13:00N 41°15' E 009°58'1018.2
2017-May-22 12:28N 41°18' E 009°46'817.9
2017-May-22 12:00N 41°20' E 009°35'917.3
2017-May-22 11:30N 41°22' E 009°24'816.4
2017-May-22 11:00N 41°17' E 009°15'816.7
2017-May-22 10:30N 41°17' E 009°04'816.5
2017-May-22 10:00N 41°17' E 008°53'816.2
2017-May-22 09:29N 41°17' E 008°42'816.1
2017-May-22 09:00N 41°17' E 008°32'816.3
2017-May-22 08:30N 41°17' E 008°21'816.5
2017-May-22 08:00N 41°17' E 008°10'816.5
2017-May-22 07:30N 41°17' E 007°59'815.2
2017-May-22 07:00N 41°17' E 007°49'815.3
2017-May-22 06:30N 41°17' E 007°39'917.5
2017-May-22 06:01N 41°17' E 007°27'918.0
2017-May-22 05:30N 41°17' E 007°15'918.1
2017-May-22 04:59N 41°17' E 007°03'918.3
2017-May-22 04:30N 41°17' E 006°51'918.2
2017-May-22 03:59N 41°17' E 006°38'918.3
2017-May-22 03:30N 41°17' E 006°27'918.2
2017-May-22 03:00N 41°16' E 006°14'918.2
2017-May-22 02:30N 41°16' E 006°02'918.1
2017-May-22 02:00N 41°16' E 005°50'918.3
2017-May-22 01:29N 41°16' E 005°38'1018.0
2017-May-22 00:55N 41°16' E 005°24'818.0
2017-May-22 00:27N 41°16' E 005°13'917.8
2017-May-21 23:57N 41°16' E 005°01'2617.6
2017-May-21 22:27N 41°16' E 004°26'817.6
2017-May-21 21:58N 41°16' E 004°15'817.6
2017-May-21 21:30N 41°16' E 004°03'1118.0
2017-May-21 20:53N 41°16' E 003°49'718.0
2017-May-21 20:30N 41°16' E 003°40'917.7
2017-May-21 19:59N 41°16' E 003°28'917.7
2017-May-21 19:30N 41°16' E 003°16'917.5
2017-May-21 19:00N 41°16' E 003°05'917.4
2017-May-21 18:30N 41°16' E 002°53'917.4
2017-May-21 18:00N 41°16' E 002°41'917.6
2017-May-21 17:30N 41°16' E 002°30'917.9
2017-May-21 17:00N 41°16' E 002°18'713.5
2017-May-21 16:30N 41°19' E 002°10'3 1.9
2017-May-21 15:03N 41°22' E 002°11'0 0.0
2017-May-21 14:51N 41°22' E 002°11'0 0.0
2017-May-21 14:27N 41°22' E 002°11'0 0.0
2017-May-21 13:16N 41°22' E 002°11'0 0.0
2017-May-21 12:58N 41°22' E 002°11'0 0.0
2017-May-21 12:17N 41°22' E 002°11'0 0.0
2017-May-21 09:55N 41°22' E 002°11'0 0.0
2017-May-21 03:58N 41°22' E 002°11'0 0.0
2017-May-21 03:29N 41°22' E 002°11'0 0.0
2017-May-21 03:00N 41°22' E 002°11'1 1.2
2017-May-21 02:30N 41°21' E 002°10'4 7.7
2017-May-21 02:00N 41°17' E 002°11'612.6
2017-May-21 01:30N 41°11' E 002°11'713.6
2017-May-21 01:00N 41°04' E 002°11'815.5
2017-May-21 00:30N 40°57' E 002°12'917.8
2017-May-21 00:00N 40°48' E 002°12'917.9
2017-May-20 23:30N 40°39' E 002°12'918.0
2017-May-20 23:00N 40°30' E 002°12'918.1
2017-May-20 22:31N 40°21' E 002°12'918.0
2017-May-20 22:01N 40°12' E 002°12'918.1
2017-May-20 21:30N 40°03' E 002°12'918.1
2017-May-20 21:00N 39°54' E 002°12'918.1
2017-May-20 20:30N 39°45' E 002°13'918.3
2017-May-20 20:00N 39°35' E 002°13'917.4
2017-May-20 19:30N 39°29' E 002°20'917.6
2017-May-20 19:00N 39°24' E 002°30'816.4
2017-May-20 18:30N 39°30' E 002°37'3 5.6
2017-May-20 18:00N 39°33' E 002°38'0 0.0
2017-May-20 17:29N 39°33' E 002°38'0 0.0
2017-May-20 16:59N 39°33' E 002°38'0 0.0
2017-May-20 16:29N 39°33' E 002°38'0 0.0
2017-May-20 16:00N 39°33' E 002°38'0 0.0
2017-May-20 15:30N 39°33' E 002°38'0 0.0
2017-May-20 15:00N 39°33' E 002°38'0 0.0
2017-May-20 14:28N 39°33' E 002°38'0 0.0
2017-May-20 13:28N 39°33' E 002°38'0 0.0
2017-May-20 12:59N 39°33' E 002°38'0 0.0
2017-May-20 12:29N 39°33' E 002°38'0 0.0
2017-May-20 11:59N 39°33' E 002°38'0 0.0
2017-May-20 11:30N 39°33' E 002°38'0 0.0
2017-May-20 11:00N 39°33' E 002°38'0 0.1
2017-May-20 10:30N 39°33' E 002°38'1 2.4
2017-May-20 10:00N 39°32' E 002°39'613.0
2017-May-20 09:30N 39°27' E 002°34'916.9
2017-May-20 09:00N 39°28' E 002°23'917.3
2017-May-20 08:30N 39°35' E 002°17'1019.8
2017-May-20 08:01N 39°43' E 002°24'1020.1
2017-May-20 07:30N 39°51' E 002°32'1020.1
2017-May-20 07:00N 39°58' E 002°41'1020.2
2017-May-20 06:30N 40°06' E 002°50'1020.5
2017-May-20 06:00N 40°13' E 002°60'1020.2
2017-May-20 05:30N 40°20' E 003°09'1020.1
2017-May-20 05:00N 40°27' E 003°18'20921.2
2017-May-19 19:06N 42°57' E 006°35'320.6
2017-May-19 18:59N 42°58' E 006°37'1020.5
2017-May-19 18:30N 43°05' E 006°46'1020.3
2017-May-19 18:00N 43°14' E 006°54'1021.0
2017-May-19 17:30N 43°24' E 006°58'713.9
2017-May-19 17:00N 43°31' E 007°01'1 2.3
2017-May-19 16:29N 43°32' E 007°01'0 0.0
2017-May-19 16:01N 43°32' E 007°01'0 0.1
2017-May-19 15:30N 43°32' E 007°01'0 0.0
2017-May-19 15:00N 43°32' E 007°01'0 0.1
2017-May-19 13:58N 43°32' E 007°00'0 0.2
2017-May-19 13:24N 43°32' E 007°01'0 0.1
2017-May-19 12:51N 43°32' E 007°01'0 0.3
2017-May-19 12:26N 43°32' E 007°01'0 0.0
2017-May-19 11:56N 43°32' E 007°01'0 0.1
2017-May-19 11:28N 43°32' E 007°01'0 0.0
2017-May-19 11:00N 43°32' E 007°01'0 0.1
2017-May-19 10:30N 43°32' E 007°01'0 0.1
2017-May-19 10:00N 43°32' E 007°01'0 0.1
2017-May-19 09:30N 43°32' E 007°01'0 0.1
2017-May-19 08:55N 43°32' E 007°01'0 0.3
2017-May-19 08:28N 43°32' E 007°01'0 0.3
2017-May-19 07:57N 43°32' E 007°01'0 0.3
2017-May-19 07:29N 43°32' E 007°01'0 0.1
2017-May-19 07:00N 43°32' E 007°01'0 0.1
2017-May-19 06:30N 43°32' E 007°01'0 0.3
2017-May-19 06:00N 43°32' E 007°01'0 0.1
2017-May-19 05:29N 43°32' E 007°01'0 0.3
2017-May-19 05:00N 43°32' E 007°01'2 3.4
2017-May-19 04:30N 43°30' E 007°01'5 9.4
2017-May-19 04:01N 43°28' E 007°06'611.3
2017-May-19 03:30N 43°28' E 007°14'611.9
2017-May-19 03:00N 43°28' E 007°22'612.4
2017-May-19 02:30N 43°29' E 007°31'612.3
2017-May-19 02:00N 43°29' E 007°39'612.9
2017-May-19 01:30N 43°29' E 007°48'613.0
2017-May-19 01:00N 43°29' E 007°57'612.9
2017-May-19 00:31N 43°29' E 008°06'713.0
2017-May-19 00:00N 43°29' E 008°15'713.1
2017-May-18 23:30N 43°28' E 008°24'713.2
2017-May-18 23:00N 43°27' E 008°33'815.1
2017-May-18 22:30N 43°29' E 008°43'816.6
2017-May-18 22:00N 43°30' E 008°54'817.0
2017-May-18 21:30N 43°30' E 009°06'816.7
2017-May-18 21:00N 43°31' E 009°17'713.1
2017-May-18 20:31N 43°31' E 009°26'612.8
2017-May-18 20:00N 43°31' E 009°35'612.8
2017-May-18 19:31N 43°31' E 009°44'612.7
2017-May-18 19:01N 43°31' E 009°53'612.4
2017-May-18 18:30N 43°31' E 010°01'612.2
2017-May-18 17:59N 43°31' E 010°10'511.2
2017-May-18 17:31N 43°32' E 010°17'1 1.4
2017-May-18 16:54N 43°33' E 010°18'0 0.0
2017-May-18 16:30N 43°33' E 010°18'0 0.0
2017-May-18 15:55N 43°33' E 010°18'0 0.0
2017-May-18 15:28N 43°33' E 010°18'0 0.0
2017-May-18 14:55N 43°33' E 010°18'0 0.0
2017-May-18 13:56N 43°33' E 010°18'0 0.0
2017-May-18 13:29N 43°33' E 010°18'0 0.0
2017-May-18 13:00N 43°33' E 010°18'0 0.0
2017-May-18 12:30N 43°33' E 010°18'0 0.0
2017-May-18 12:00N 43°33' E 010°18'0 0.0
2017-May-18 11:28N 43°33' E 010°18'0 0.0
2017-May-18 10:58N 43°33' E 010°18'0 0.0
2017-May-18 10:28N 43°33' E 010°18'0 0.0
2017-May-18 09:56N 43°33' E 010°18'0 0.0
2017-May-18 09:26N 43°33' E 010°18'0 0.0
2017-May-18 08:59N 43°33' E 010°18'0 0.0
2017-May-18 08:24N 43°33' E 010°18'0 0.0
2017-May-18 08:00N 43°33' E 010°18'0 0.0
2017-May-18 07:30N 43°33' E 010°18'0 0.0
2017-May-18 06:58N 43°33' E 010°18'0 0.0
2017-May-18 06:28N 43°33' E 010°18'0 0.0
2017-May-18 05:58N 43°33' E 010°18'0 0.0
2017-May-18 05:29N 43°33' E 010°18'0 0.0
2017-May-18 05:01N 43°33' E 010°18'0 0.1
2017-May-18 04:31N 43°33' E 010°18'2 3.2
2017-May-18 04:01N 43°32' E 010°16'713.9
2017-May-18 03:30N 43°26' E 010°11'612.1
2017-May-18 03:00N 43°20' E 010°10'713.1
2017-May-18 02:30N 43°14' E 010°07'713.1
2017-May-18 02:00N 43°07' E 010°05'713.2
2017-May-18 01:29N 43°00' E 010°04'613.1
2017-May-18 01:00N 42°54' E 010°02'713.1
2017-May-18 00:30N 42°48' E 009°59'713.1
2017-May-18 00:01N 42°42' E 009°56'713.6
2017-May-17 23:30N 42°35' E 009°53'917.6
2017-May-17 23:00N 42°27' E 009°55'917.7
2017-May-17 22:30N 42°18' E 009°56'917.1
2017-May-17 22:00N 42°14' E 010°06'917.6
2017-May-17 21:30N 42°11' E 010°17'917.4
2017-May-17 20:59N 42°07' E 010°29'817.2
2017-May-17 20:29N 42°04' E 010°40'917.3
2017-May-17 19:59N 42°01' E 010°51'817.2
2017-May-17 19:30N 41°58' E 011°01'916.6
2017-May-17 18:58N 41°59' E 011°13'148 3.6
2017-May-16 01:49N 40°31' E 013°52'  

Dump ship's entire track history